sensor_id;sensor_type;location;lat;lon;timestamp;P1;durP1;ratioP1;P2;durP2;ratioP2
8663;SDS011;4369;47.842;13.096;2023-03-12T00:01:38;3.53;;;2.97;;
8663;SDS011;4369;47.842;13.096;2023-03-12T00:04:06;4.00;;;3.50;;
8663;SDS011;4369;47.842;13.096;2023-03-12T00:06:33;4.67;;;3.53;;
8663;SDS011;4369;47.842;13.096;2023-03-12T00:09:00;3.40;;;3.10;;
8663;SDS011;4369;47.842;13.096;2023-03-12T00:11:28;3.50;;;3.20;;
8663;SDS011;4369;47.842;13.096;2023-03-12T00:13:55;4.47;;;3.80;;
8663;SDS011;4369;47.842;13.096;2023-03-12T00:16:24;3.90;;;3.53;;
8663;SDS011;4369;47.842;13.096;2023-03-12T00:18:52;6.20;;;3.50;;
8663;SDS011;4369;47.842;13.096;2023-03-12T00:21:21;5.80;;;3.43;;
8663;SDS011;4369;47.842;13.096;2023-03-12T00:23:49;3.93;;;3.20;;
8663;SDS011;4369;47.842;13.096;2023-03-12T00:26:17;3.70;;;3.40;;
8663;SDS011;4369;47.842;13.096;2023-03-12T00:28:46;4.50;;;3.33;;
8663;SDS011;4369;47.842;13.096;2023-03-12T00:31:14;3.70;;;3.40;;
8663;SDS011;4369;47.842;13.096;2023-03-12T00:33:42;4.70;;;3.53;;
8663;SDS011;4369;47.842;13.096;2023-03-12T00:36:09;4.03;;;3.57;;
8663;SDS011;4369;47.842;13.096;2023-03-12T00:38:38;4.43;;;3.60;;
8663;SDS011;4369;47.842;13.096;2023-03-12T00:41:05;4.07;;;3.20;;
8663;SDS011;4369;47.842;13.096;2023-03-12T00:43:32;3.67;;;3.33;;
8663;SDS011;4369;47.842;13.096;2023-03-12T00:45:59;3.40;;;3.07;;
8663;SDS011;4369;47.842;13.096;2023-03-12T00:48:26;5.70;;;3.63;;
8663;SDS011;4369;47.842;13.096;2023-03-12T00:50:53;5.80;;;3.57;;
8663;SDS011;4369;47.842;13.096;2023-03-12T00:53:20;3.87;;;3.57;;
8663;SDS011;4369;47.842;13.096;2023-03-12T00:55:48;7.77;;;4.13;;
8663;SDS011;4369;47.842;13.096;2023-03-12T00:58:15;4.97;;;3.97;;
8663;SDS011;4369;47.842;13.096;2023-03-12T01:00:42;6.10;;;4.00;;
8663;SDS011;4369;47.842;13.096;2023-03-12T01:03:09;5.90;;;4.50;;
8663;SDS011;4369;47.842;13.096;2023-03-12T01:05:36;5.60;;;4.20;;
8663;SDS011;4369;47.842;13.096;2023-03-12T01:08:05;6.03;;;4.10;;
8663;SDS011;4369;47.842;13.096;2023-03-12T01:10:32;4.60;;;4.20;;
8663;SDS011;4369;47.842;13.096;2023-03-12T01:13:00;4.90;;;4.30;;
8663;SDS011;4369;47.842;13.096;2023-03-12T01:15:27;4.83;;;4.10;;
8663;SDS011;4369;47.842;13.096;2023-03-12T01:17:54;4.43;;;3.57;;
8663;SDS011;4369;47.842;13.096;2023-03-12T01:20:21;6.00;;;3.70;;
8663;SDS011;4369;47.842;13.096;2023-03-12T01:22:48;4.90;;;3.97;;
8663;SDS011;4369;47.842;13.096;2023-03-12T01:25:16;5.60;;;3.83;;
8663;SDS011;4369;47.842;13.096;2023-03-12T01:27:43;5.30;;;3.87;;
8663;SDS011;4369;47.842;13.096;2023-03-12T01:30:12;4.77;;;4.20;;
8663;SDS011;4369;47.842;13.096;2023-03-12T01:32:39;6.70;;;3.83;;
8663;SDS011;4369;47.842;13.096;2023-03-12T01:35:06;4.63;;;4.10;;
8663;SDS011;4369;47.842;13.096;2023-03-12T01:37:33;4.83;;;3.70;;
8663;SDS011;4369;47.842;13.096;2023-03-12T01:40:01;7.13;;;4.17;;
8663;SDS011;4369;47.842;13.096;2023-03-12T01:42:28;4.83;;;3.87;;
8663;SDS011;4369;47.842;13.096;2023-03-12T01:44:55;5.03;;;3.70;;
8663;SDS011;4369;47.842;13.096;2023-03-12T01:47:25;4.80;;;4.00;;
8663;SDS011;4369;47.842;13.096;2023-03-12T01:49:53;4.20;;;3.60;;
8663;SDS011;4369;47.842;13.096;2023-03-12T01:52:21;4.30;;;3.83;;
8663;SDS011;4369;47.842;13.096;2023-03-12T01:54:52;4.23;;;3.83;;
8663;SDS011;4369;47.842;13.096;2023-03-12T01:57:22;5.43;;;3.63;;
8663;SDS011;4369;47.842;13.096;2023-03-12T01:59:55;4.17;;;3.50;;
8663;SDS011;4369;47.842;13.096;2023-03-12T02:02:25;4.87;;;3.63;;
8663;SDS011;4369;47.842;13.096;2023-03-12T02:04:57;5.70;;;3.83;;
8663;SDS011;4369;47.842;13.096;2023-03-12T02:07:36;6.27;;;4.13;;
8663;SDS011;4369;47.842;13.096;2023-03-12T02:10:03;4.30;;;3.73;;
8663;SDS011;4369;47.842;13.096;2023-03-12T02:12:30;6.63;;;3.73;;
8663;SDS011;4369;47.842;13.096;2023-03-12T02:14:57;4.43;;;3.83;;
8663;SDS011;4369;47.842;13.096;2023-03-12T02:17:25;6.97;;;3.87;;
8663;SDS011;4369;47.842;13.096;2023-03-12T02:19:55;4.27;;;3.87;;
8663;SDS011;4369;47.842;13.096;2023-03-12T02:22:33;3.77;;;3.40;;
8663;SDS011;4369;47.842;13.096;2023-03-12T02:25:01;3.90;;;3.27;;
8663;SDS011;4369;47.842;13.096;2023-03-12T02:27:37;3.63;;;3.10;;
8663;SDS011;4369;47.842;13.096;2023-03-12T02:30:06;4.93;;;3.30;;
8663;SDS011;4369;47.842;13.096;2023-03-12T02:32:34;3.53;;;3.20;;
8663;SDS011;4369;47.842;13.096;2023-03-12T02:35:05;4.13;;;3.20;;
8663;SDS011;4369;47.842;13.096;2023-03-12T02:37:32;5.17;;;3.33;;
8663;SDS011;4369;47.842;13.096;2023-03-12T02:40:00;4.60;;;3.37;;
8663;SDS011;4369;47.842;13.096;2023-03-12T02:42:32;3.50;;;3.10;;
8663;SDS011;4369;47.842;13.096;2023-03-12T02:44:59;3.07;;;2.77;;
8663;SDS011;4369;47.842;13.096;2023-03-12T02:47:26;2.87;;;2.67;;
8663;SDS011;4369;47.842;13.096;2023-03-12T02:49:53;4.20;;;3.03;;
8663;SDS011;4369;47.842;13.096;2023-03-12T02:52:20;3.33;;;3.03;;
8663;SDS011;4369;47.842;13.096;2023-03-12T02:54:47;3.50;;;2.80;;
8663;SDS011;4369;47.842;13.096;2023-03-12T02:57:14;3.67;;;3.37;;
8663;SDS011;4369;47.842;13.096;2023-03-12T02:59:43;3.50;;;3.20;;
8663;SDS011;4369;47.842;13.096;2023-03-12T03:02:10;3.67;;;3.27;;
8663;SDS011;4369;47.842;13.096;2023-03-12T03:04:37;4.30;;;3.27;;
8663;SDS011;4369;47.842;13.096;2023-03-12T03:07:04;5.10;;;3.43;;
8663;SDS011;4369;47.842;13.096;2023-03-12T03:09:31;3.70;;;3.40;;
8663;SDS011;4369;47.842;13.096;2023-03-12T03:11:58;5.27;;;3.70;;
8663;SDS011;4369;47.842;13.096;2023-03-12T03:14:25;3.77;;;2.90;;
8663;SDS011;4369;47.842;13.096;2023-03-12T03:16:53;4.57;;;3.50;;
8663;SDS011;4369;47.842;13.096;2023-03-12T03:19:20;5.53;;;3.60;;
8663;SDS011;4369;47.842;13.096;2023-03-12T03:21:47;5.60;;;4.00;;
8663;SDS011;4369;47.842;13.096;2023-03-12T03:24:14;5.20;;;3.77;;
8663;SDS011;4369;47.842;13.096;2023-03-12T03:26:41;5.13;;;3.73;;
8663;SDS011;4369;47.842;13.096;2023-03-12T03:29:08;5.73;;;4.10;;
8663;SDS011;4369;47.842;13.096;2023-03-12T03:31:35;4.17;;;3.77;;
8663;SDS011;4369;47.842;13.096;2023-03-12T03:34:03;4.53;;;3.70;;
8663;SDS011;4369;47.842;13.096;2023-03-12T03:36:30;4.37;;;3.97;;
8663;SDS011;4369;47.842;13.096;2023-03-12T03:38:57;7.20;;;4.37;;
8663;SDS011;4369;47.842;13.096;2023-03-12T03:41:24;4.63;;;4.23;;
8663;SDS011;4369;47.842;13.096;2023-03-12T03:43:54;4.43;;;4.03;;
8663;SDS011;4369;47.842;13.096;2023-03-12T03:46:21;4.93;;;3.93;;
8663;SDS011;4369;47.842;13.096;2023-03-12T03:48:48;4.37;;;3.97;;
8663;SDS011;4369;47.842;13.096;2023-03-12T03:51:17;4.17;;;3.73;;
8663;SDS011;4369;47.842;13.096;2023-03-12T03:53:44;5.50;;;3.77;;
8663;SDS011;4369;47.842;13.096;2023-03-12T03:56:11;4.23;;;3.73;;
8663;SDS011;4369;47.842;13.096;2023-03-12T03:58:39;3.90;;;3.53;;
8663;SDS011;4369;47.842;13.096;2023-03-12T04:01:06;4.60;;;3.87;;
8663;SDS011;4369;47.842;13.096;2023-03-12T04:03:33;5.23;;;4.13;;
8663;SDS011;4369;47.842;13.096;2023-03-12T04:06:01;4.63;;;4.10;;
8663;SDS011;4369;47.842;13.096;2023-03-12T04:08:31;4.33;;;3.87;;
8663;SDS011;4369;47.842;13.096;2023-03-12T04:11:05;5.00;;;3.93;;
8663;SDS011;4369;47.842;13.096;2023-03-12T04:13:32;7.13;;;4.80;;
8663;SDS011;4369;47.842;13.096;2023-03-12T04:15:59;8.77;;;5.03;;
8663;SDS011;4369;47.842;13.096;2023-03-12T04:18:26;6.77;;;4.60;;
8663;SDS011;4369;47.842;13.096;2023-03-12T04:20:53;5.53;;;4.67;;
8663;SDS011;4369;47.842;13.096;2023-03-12T04:23:20;6.10;;;5.17;;
8663;SDS011;4369;47.842;13.096;2023-03-12T04:25:48;7.60;;;5.03;;
8663;SDS011;4369;47.842;13.096;2023-03-12T04:28:15;6.60;;;4.83;;
8663;SDS011;4369;47.842;13.096;2023-03-12T04:30:42;5.17;;;4.47;;
8663;SDS011;4369;47.842;13.096;2023-03-12T04:33:09;6.57;;;4.90;;
8663;SDS011;4369;47.842;13.096;2023-03-12T04:35:36;5.70;;;4.80;;
8663;SDS011;4369;47.842;13.096;2023-03-12T04:38:03;5.67;;;4.50;;
8663;SDS011;4369;47.842;13.096;2023-03-12T04:40:29;8.17;;;4.77;;
8663;SDS011;4369;47.842;13.096;2023-03-12T04:42:58;6.07;;;4.70;;
8663;SDS011;4369;47.842;13.096;2023-03-12T04:45:24;5.40;;;4.40;;
8663;SDS011;4369;47.842;13.096;2023-03-12T04:47:51;5.50;;;4.87;;
8663;SDS011;4369;47.842;13.096;2023-03-12T04:50:18;6.60;;;4.93;;
8663;SDS011;4369;47.842;13.096;2023-03-12T04:52:45;5.63;;;4.63;;
8663;SDS011;4369;47.842;13.096;2023-03-12T04:55:12;6.20;;;4.97;;
8663;SDS011;4369;47.842;13.096;2023-03-12T04:57:39;5.80;;;4.73;;
8663;SDS011;4369;47.842;13.096;2023-03-12T05:00:08;7.00;;;4.53;;
8663;SDS011;4369;47.842;13.096;2023-03-12T05:02:38;5.63;;;4.87;;
8663;SDS011;4369;47.842;13.096;2023-03-12T05:05:05;5.97;;;4.57;;
8663;SDS011;4369;47.842;13.096;2023-03-12T05:07:33;5.73;;;4.67;;
8663;SDS011;4369;47.842;13.096;2023-03-12T05:10:00;6.20;;;4.73;;
8663;SDS011;4369;47.842;13.096;2023-03-12T05:12:28;8.07;;;4.50;;
8663;SDS011;4369;47.842;13.096;2023-03-12T05:14:55;5.10;;;4.60;;
8663;SDS011;4369;47.842;13.096;2023-03-12T05:17:23;4.83;;;4.20;;
8663;SDS011;4369;47.842;13.096;2023-03-12T05:19:50;5.17;;;4.10;;
8663;SDS011;4369;47.842;13.096;2023-03-12T05:22:17;4.40;;;3.93;;
8663;SDS011;4369;47.842;13.096;2023-03-12T05:24:44;5.60;;;4.40;;
8663;SDS011;4369;47.842;13.096;2023-03-12T05:27:10;6.90;;;4.83;;
8663;SDS011;4369;47.842;13.096;2023-03-12T05:29:37;5.87;;;4.63;;
8663;SDS011;4369;47.842;13.096;2023-03-12T05:32:04;5.10;;;4.23;;
8663;SDS011;4369;47.842;13.096;2023-03-12T05:34:33;5.30;;;4.80;;
8663;SDS011;4369;47.842;13.096;2023-03-12T05:37:00;5.73;;;4.80;;
8663;SDS011;4369;47.842;13.096;2023-03-12T05:39:27;5.47;;;4.83;;
8663;SDS011;4369;47.842;13.096;2023-03-12T05:41:54;6.77;;;4.27;;
8663;SDS011;4369;47.842;13.096;2023-03-12T05:44:21;6.47;;;4.60;;
8663;SDS011;4369;47.842;13.096;2023-03-12T05:46:49;6.30;;;4.67;;
8663;SDS011;4369;47.842;13.096;2023-03-12T05:49:16;5.23;;;4.07;;
8663;SDS011;4369;47.842;13.096;2023-03-12T05:51:45;6.40;;;4.63;;
8663;SDS011;4369;47.842;13.096;2023-03-12T05:54:12;5.87;;;4.90;;
8663;SDS011;4369;47.842;13.096;2023-03-12T05:56:39;6.83;;;4.80;;
8663;SDS011;4369;47.842;13.096;2023-03-12T05:59:06;5.00;;;4.50;;
8663;SDS011;4369;47.842;13.096;2023-03-12T06:01:34;5.13;;;4.60;;
8663;SDS011;4369;47.842;13.096;2023-03-12T06:04:01;6.00;;;4.83;;
8663;SDS011;4369;47.842;13.096;2023-03-12T06:06:29;8.07;;;4.93;;
8663;SDS011;4369;47.842;13.096;2023-03-12T06:08:57;10.80;;;5.17;;
8663;SDS011;4369;47.842;13.096;2023-03-12T06:11:24;6.87;;;4.80;;
8663;SDS011;4369;47.842;13.096;2023-03-12T06:13:51;7.50;;;4.53;;
8663;SDS011;4369;47.842;13.096;2023-03-12T06:16:18;5.83;;;4.60;;
8663;SDS011;4369;47.842;13.096;2023-03-12T06:18:47;6.00;;;4.70;;
8663;SDS011;4369;47.842;13.096;2023-03-12T06:21:15;5.03;;;4.43;;
8663;SDS011;4369;47.842;13.096;2023-03-12T06:23:43;5.37;;;4.77;;
8663;SDS011;4369;47.842;13.096;2023-03-12T06:26:12;5.67;;;4.97;;
8663;SDS011;4369;47.842;13.096;2023-03-12T06:28:39;5.73;;;5.10;;
8663;SDS011;4369;47.842;13.096;2023-03-12T06:31:06;5.90;;;4.67;;
8663;SDS011;4369;47.842;13.096;2023-03-12T06:33:33;5.30;;;4.80;;
8663;SDS011;4369;47.842;13.096;2023-03-12T06:36:01;7.63;;;5.93;;
8663;SDS011;4369;47.842;13.096;2023-03-12T06:38:30;9.60;;;6.70;;
8663;SDS011;4369;47.842;13.096;2023-03-12T06:40:58;9.50;;;6.73;;
8663;SDS011;4369;47.842;13.096;2023-03-12T06:43:28;14.70;;;9.37;;
8663;SDS011;4369;47.842;13.096;2023-03-12T06:45:57;7.67;;;6.37;;
8663;SDS011;4369;47.842;13.096;2023-03-12T06:48:25;6.20;;;5.60;;
8663;SDS011;4369;47.842;13.096;2023-03-12T06:50:53;8.47;;;5.40;;
8663;SDS011;4369;47.842;13.096;2023-03-12T06:53:20;9.07;;;5.27;;
8663;SDS011;4369;47.842;13.096;2023-03-12T06:55:51;5.37;;;4.80;;
8663;SDS011;4369;47.842;13.096;2023-03-12T06:58:18;7.43;;;5.70;;
8663;SDS011;4369;47.842;13.096;2023-03-12T07:00:46;7.07;;;5.47;;
8663;SDS011;4369;47.842;13.096;2023-03-12T07:03:13;5.63;;;5.07;;
8663;SDS011;4369;47.842;13.096;2023-03-12T07:05:42;8.23;;;5.43;;
8663;SDS011;4369;47.842;13.096;2023-03-12T07:08:09;5.97;;;5.37;;
8663;SDS011;4369;47.842;13.096;2023-03-12T07:10:37;8.07;;;5.50;;
8663;SDS011;4369;47.842;13.096;2023-03-12T07:13:03;5.90;;;5.23;;
8663;SDS011;4369;47.842;13.096;2023-03-12T07:15:31;6.20;;;4.90;;
8663;SDS011;4369;47.842;13.096;2023-03-12T07:17:59;7.28;;;5.88;;
8663;SDS011;4369;47.842;13.096;2023-03-12T07:20:26;7.23;;;5.17;;
8663;SDS011;4369;47.842;13.096;2023-03-12T07:22:53;8.07;;;6.40;;
8663;SDS011;4369;47.842;13.096;2023-03-12T07:25:20;5.87;;;5.27;;
8663;SDS011;4369;47.842;13.096;2023-03-12T07:27:47;8.03;;;6.73;;
8663;SDS011;4369;47.842;13.096;2023-03-12T07:30:14;7.87;;;6.73;;
8663;SDS011;4369;47.842;13.096;2023-03-12T07:32:41;17.80;;;7.60;;
8663;SDS011;4369;47.842;13.096;2023-03-12T07:35:09;5.70;;;4.97;;
8663;SDS011;4369;47.842;13.096;2023-03-12T07:37:36;5.80;;;5.17;;
8663;SDS011;4369;47.842;13.096;2023-03-12T07:40:05;6.10;;;5.00;;
8663;SDS011;4369;47.842;13.096;2023-03-12T07:42:34;6.23;;;5.63;;
8663;SDS011;4369;47.842;13.096;2023-03-12T07:45:01;11.87;;;6.13;;
8663;SDS011;4369;47.842;13.096;2023-03-12T07:47:28;8.40;;;5.50;;
8663;SDS011;4369;47.842;13.096;2023-03-12T07:49:55;6.73;;;5.20;;
8663;SDS011;4369;47.842;13.096;2023-03-12T07:52:24;6.43;;;5.37;;
8663;SDS011;4369;47.842;13.096;2023-03-12T07:54:51;6.60;;;5.30;;
8663;SDS011;4369;47.842;13.096;2023-03-12T07:57:20;7.70;;;5.47;;
8663;SDS011;4369;47.842;13.096;2023-03-12T07:59:47;8.10;;;5.63;;
8663;SDS011;4369;47.842;13.096;2023-03-12T08:02:14;7.53;;;5.80;;
8663;SDS011;4369;47.842;13.096;2023-03-12T08:04:41;7.10;;;5.60;;
8663;SDS011;4369;47.842;13.096;2023-03-12T08:07:08;6.33;;;5.53;;
8663;SDS011;4369;47.842;13.096;2023-03-12T08:09:36;6.00;;;5.00;;
8663;SDS011;4369;47.842;13.096;2023-03-12T08:12:03;5.60;;;5.10;;
8663;SDS011;4369;47.842;13.096;2023-03-12T08:14:31;6.20;;;5.30;;
8663;SDS011;4369;47.842;13.096;2023-03-12T08:16:58;5.80;;;5.07;;
8663;SDS011;4369;47.842;13.096;2023-03-12T08:19:25;9.13;;;4.70;;
8663;SDS011;4369;47.842;13.096;2023-03-12T08:21:53;5.63;;;4.87;;
8663;SDS011;4369;47.842;13.096;2023-03-12T08:24:20;6.50;;;4.73;;
8663;SDS011;4369;47.842;13.096;2023-03-12T08:26:49;8.53;;;5.07;;
8663;SDS011;4369;47.842;13.096;2023-03-12T08:29:16;11.30;;;5.30;;
8663;SDS011;4369;47.842;13.096;2023-03-12T08:31:43;5.27;;;4.77;;
8663;SDS011;4369;47.842;13.096;2023-03-12T08:34:09;7.60;;;5.40;;
8663;SDS011;4369;47.842;13.096;2023-03-12T08:36:37;7.93;;;5.13;;
8663;SDS011;4369;47.842;13.096;2023-03-12T08:39:04;5.40;;;4.90;;
8663;SDS011;4369;47.842;13.096;2023-03-12T08:41:30;8.33;;;4.57;;
8663;SDS011;4369;47.842;13.096;2023-03-12T08:43:59;6.10;;;4.57;;
8663;SDS011;4369;47.842;13.096;2023-03-12T08:46:26;11.73;;;4.53;;
8663;SDS011;4369;47.842;13.096;2023-03-12T08:48:53;3.97;;;3.03;;
8663;SDS011;4369;47.842;13.096;2023-03-12T08:51:20;6.80;;;4.97;;
8663;SDS011;4369;47.842;13.096;2023-03-12T08:53:47;5.53;;;3.50;;
8663;SDS011;4369;47.842;13.096;2023-03-12T08:56:14;2.83;;;2.13;;
8663;SDS011;4369;47.842;13.096;2023-03-12T08:58:41;3.17;;;2.43;;
8663;SDS011;4369;47.842;13.096;2023-03-12T09:01:10;6.93;;;2.33;;
8663;SDS011;4369;47.842;13.096;2023-03-12T09:03:37;3.47;;;2.27;;
8663;SDS011;4369;47.842;13.096;2023-03-12T09:06:05;4.70;;;2.00;;
8663;SDS011;4369;47.842;13.096;2023-03-12T09:08:37;7.30;;;2.00;;
8663;SDS011;4369;47.842;13.096;2023-03-12T09:11:04;2.37;;;2.10;;
8663;SDS011;4369;47.842;13.096;2023-03-12T09:13:31;5.70;;;2.33;;
8663;SDS011;4369;47.842;13.096;2023-03-12T09:15:58;2.37;;;2.17;;
8663;SDS011;4369;47.842;13.096;2023-03-12T09:18:27;3.73;;;2.40;;
8663;SDS011;4369;47.842;13.096;2023-03-12T09:20:54;2.97;;;2.40;;
8663;SDS011;4369;47.842;13.096;2023-03-12T09:23:22;3.90;;;2.47;;
8663;SDS011;4369;47.842;13.096;2023-03-12T09:25:49;4.80;;;2.53;;
8663;SDS011;4369;47.842;13.096;2023-03-12T09:28:16;3.83;;;2.30;;
8663;SDS011;4369;47.842;13.096;2023-03-12T09:30:44;3.17;;;2.53;;
8663;SDS011;4369;47.842;13.096;2023-03-12T09:33:11;3.67;;;2.90;;
8663;SDS011;4369;47.842;13.096;2023-03-12T09:35:40;5.03;;;2.40;;
8663;SDS011;4369;47.842;13.096;2023-03-12T09:38:08;3.33;;;3.03;;
8663;SDS011;4369;47.842;13.096;2023-03-12T09:40:38;4.53;;;2.90;;
8663;SDS011;4369;47.842;13.096;2023-03-12T09:43:12;4.07;;;2.30;;
8663;SDS011;4369;47.842;13.096;2023-03-12T09:45:46;2.53;;;2.30;;
8663;SDS011;4369;47.842;13.096;2023-03-12T09:48:14;2.60;;;2.40;;
8663;SDS011;4369;47.842;13.096;2023-03-12T09:50:46;3.10;;;2.80;;
8663;SDS011;4369;47.842;13.096;2023-03-12T09:53:24;4.17;;;2.80;;
8663;SDS011;4369;47.842;13.096;2023-03-12T09:55:54;3.67;;;2.90;;
8663;SDS011;4369;47.842;13.096;2023-03-12T09:58:24;3.97;;;2.90;;
8663;SDS011;4369;47.842;13.096;2023-03-12T10:00:54;3.10;;;2.80;;
8663;SDS011;4369;47.842;13.096;2023-03-12T10:03:31;6.13;;;3.30;;
8663;SDS011;4369;47.842;13.096;2023-03-12T10:06:21;3.80;;;3.50;;
8663;SDS011;4369;47.842;13.096;2023-03-12T10:08:55;5.97;;;3.80;;
8663;SDS011;4369;47.842;13.096;2023-03-12T10:11:35;3.77;;;3.33;;
8663;SDS011;4369;47.842;13.096;2023-03-12T10:14:13;6.87;;;3.67;;
8663;SDS011;4369;47.842;13.096;2023-03-12T10:16:58;4.13;;;3.30;;
8663;SDS011;4369;47.842;13.096;2023-03-12T10:19:36;5.73;;;3.40;;
8663;SDS011;4369;47.842;13.096;2023-03-12T10:22:16;3.97;;;3.27;;
8663;SDS011;4369;47.842;13.096;2023-03-12T10:24:53;4.80;;;3.57;;
8663;SDS011;4369;47.842;13.096;2023-03-12T10:27:27;5.33;;;3.10;;
8663;SDS011;4369;47.842;13.096;2023-03-12T10:29:56;3.10;;;2.80;;
8663;SDS011;4369;47.842;13.096;2023-03-12T10:32:25;4.53;;;3.17;;
8663;SDS011;4369;47.842;13.096;2023-03-12T10:34:57;6.10;;;3.30;;
8663;SDS011;4369;47.842;13.096;2023-03-12T10:37:30;6.90;;;3.50;;
8663;SDS011;4369;47.842;13.096;2023-03-12T10:40:01;3.30;;;2.67;;
8663;SDS011;4369;47.842;13.096;2023-03-12T10:42:30;4.70;;;2.97;;
8663;SDS011;4369;47.842;13.096;2023-03-12T10:44:58;3.37;;;2.80;;
8663;SDS011;4369;47.842;13.096;2023-03-12T10:47:33;5.93;;;3.00;;
8663;SDS011;4369;47.842;13.096;2023-03-12T10:50:11;6.43;;;3.40;;
8663;SDS011;4369;47.842;13.096;2023-03-12T10:52:41;8.60;;;3.90;;
8663;SDS011;4369;47.842;13.096;2023-03-12T10:55:10;4.47;;;3.30;;
8663;SDS011;4369;47.842;13.096;2023-03-12T10:57:38;5.93;;;3.33;;
8663;SDS011;4369;47.842;13.096;2023-03-12T11:00:07;4.60;;;3.20;;
8663;SDS011;4369;47.842;13.096;2023-03-12T11:02:37;4.20;;;3.80;;
8663;SDS011;4369;47.842;13.096;2023-03-12T11:05:17;4.00;;;3.60;;
8663;SDS011;4369;47.842;13.096;2023-03-12T11:07:48;4.40;;;3.30;;
8663;SDS011;4369;47.842;13.096;2023-03-12T11:10:22;5.33;;;3.53;;
8663;SDS011;4369;47.842;13.096;2023-03-12T11:12:55;4.57;;;3.50;;
8663;SDS011;4369;47.842;13.096;2023-03-12T11:15:28;4.10;;;3.70;;
8663;SDS011;4369;47.842;13.096;2023-03-12T11:18:23;6.70;;;4.03;;
8663;SDS011;4369;47.842;13.096;2023-03-12T11:20:52;8.43;;;3.83;;
8663;SDS011;4369;47.842;13.096;2023-03-12T11:23:23;5.63;;;3.90;;
8663;SDS011;4369;47.842;13.096;2023-03-12T11:25:54;8.87;;;4.30;;
8663;SDS011;4369;47.842;13.096;2023-03-12T11:28:27;4.90;;;3.80;;
8663;SDS011;4369;47.842;13.096;2023-03-12T11:31:00;8.30;;;4.50;;
8663;SDS011;4369;47.842;13.096;2023-03-12T11:33:28;8.83;;;5.03;;
8663;SDS011;4369;47.842;13.096;2023-03-12T11:35:57;6.00;;;4.93;;
8663;SDS011;4369;47.842;13.096;2023-03-12T11:38:36;5.83;;;4.60;;
8663;SDS011;4369;47.842;13.096;2023-03-12T11:41:09;8.73;;;4.80;;
8663;SDS011;4369;47.842;13.096;2023-03-12T11:43:54;5.77;;;4.17;;
8663;SDS011;4369;47.842;13.096;2023-03-12T11:46:31;8.07;;;4.50;;
8663;SDS011;4369;47.842;13.096;2023-03-12T11:49:10;7.53;;;4.50;;
8663;SDS011;4369;47.842;13.096;2023-03-12T11:51:49;5.30;;;3.93;;
8663;SDS011;4369;47.842;13.096;2023-03-12T11:57:33;6.83;;;4.40;;
8663;SDS011;4369;47.842;13.096;2023-03-12T12:00:13;7.67;;;4.97;;
8663;SDS011;4369;47.842;13.096;2023-03-12T12:02:57;8.10;;;4.70;;
8663;SDS011;4369;47.842;13.096;2023-03-12T12:05:41;10.37;;;5.20;;
8663;SDS011;4369;47.842;13.096;2023-03-12T12:08:17;7.73;;;5.00;;
8663;SDS011;4369;47.842;13.096;2023-03-12T12:11:01;6.53;;;4.30;;
8663;SDS011;4369;47.842;13.096;2023-03-12T12:13:36;8.57;;;4.53;;
8663;SDS011;4369;47.842;13.096;2023-03-12T12:16:16;8.33;;;4.43;;
8663;SDS011;4369;47.842;13.096;2023-03-12T12:18:52;11.73;;;5.57;;
8663;SDS011;4369;47.842;13.096;2023-03-12T12:21:33;8.57;;;5.47;;
8663;SDS011;4369;47.842;13.096;2023-03-12T12:24:13;6.30;;;4.57;;
8663;SDS011;4369;47.842;13.096;2023-03-12T12:26:52;8.10;;;4.90;;
8663;SDS011;4369;47.842;13.096;2023-03-12T12:29:28;9.10;;;4.70;;
8663;SDS011;4369;47.842;13.096;2023-03-12T12:32:03;7.97;;;4.77;;
8663;SDS011;4369;47.842;13.096;2023-03-12T12:34:45;10.40;;;4.67;;
8663;SDS011;4369;47.842;13.096;2023-03-12T12:37:30;8.60;;;4.50;;
8663;SDS011;4369;47.842;13.096;2023-03-12T12:40:09;8.60;;;4.90;;
8663;SDS011;4369;47.842;13.096;2023-03-12T12:42:48;5.97;;;3.90;;
8663;SDS011;4369;47.842;13.096;2023-03-12T12:45:22;4.77;;;4.33;;
8663;SDS011;4369;47.842;13.096;2023-03-12T12:47:52;6.37;;;4.53;;
8663;SDS011;4369;47.842;13.096;2023-03-12T12:50:24;7.97;;;4.67;;
8663;SDS011;4369;47.842;13.096;2023-03-12T12:52:56;5.00;;;4.47;;
8663;SDS011;4369;47.842;13.096;2023-03-12T12:55:31;6.80;;;5.07;;
8663;SDS011;4369;47.842;13.096;2023-03-12T12:58:06;5.33;;;4.73;;
8663;SDS011;4369;47.842;13.096;2023-03-12T13:00:42;8.27;;;5.03;;
8663;SDS011;4369;47.842;13.096;2023-03-12T13:03:13;5.10;;;4.60;;
8663;SDS011;4369;47.842;13.096;2023-03-12T13:05:44;8.77;;;5.60;;
8663;SDS011;4369;47.842;13.096;2023-03-12T13:08:31;5.77;;;5.17;;
8663;SDS011;4369;47.842;13.096;2023-03-12T13:11:03;6.33;;;5.40;;
8663;SDS011;4369;47.842;13.096;2023-03-12T13:13:33;5.73;;;4.43;;
8663;SDS011;4369;47.842;13.096;2023-03-12T13:16:16;5.53;;;4.83;;
8663;SDS011;4369;47.842;13.096;2023-03-12T13:18:55;5.73;;;4.63;;
8663;SDS011;4369;47.842;13.096;2023-03-12T13:21:23;7.17;;;4.60;;
8663;SDS011;4369;47.842;13.096;2023-03-12T13:23:58;11.43;;;5.37;;
8663;SDS011;4369;47.842;13.096;2023-03-12T13:26:41;8.47;;;5.03;;
8663;SDS011;4369;47.842;13.096;2023-03-12T13:29:21;5.70;;;4.73;;
8663;SDS011;4369;47.842;13.096;2023-03-12T13:32:01;5.67;;;4.40;;
8663;SDS011;4369;47.842;13.096;2023-03-12T13:37:29;13.20;;;6.50;;
8663;SDS011;4369;47.842;13.096;2023-03-12T13:40:32;12.67;;;5.47;;
8663;SDS011;4369;47.842;13.096;2023-03-12T13:43:01;6.30;;;4.97;;
8663;SDS011;4369;47.842;13.096;2023-03-12T13:45:41;7.82;;;5.80;;
8663;SDS011;4369;47.842;13.096;2023-03-12T13:48:21;6.10;;;5.50;;
8663;SDS011;4369;47.842;13.096;2023-03-12T13:50:51;7.90;;;6.67;;
8663;SDS011;4369;47.842;13.096;2023-03-12T13:53:21;23.03;;;17.13;;
8663;SDS011;4369;47.842;13.096;2023-03-12T13:55:58;16.63;;;10.87;;
8663;SDS011;4369;47.842;13.096;2023-03-12T13:58:27;9.73;;;6.27;;
8663;SDS011;4369;47.842;13.096;2023-03-12T14:01:00;7.30;;;5.90;;
8663;SDS011;4369;47.842;13.096;2023-03-12T14:03:31;10.30;;;9.23;;
8663;SDS011;4369;47.842;13.096;2023-03-12T14:06:06;11.50;;;8.33;;
8663;SDS011;4369;47.842;13.096;2023-03-12T14:08:37;6.83;;;6.00;;
8663;SDS011;4369;47.842;13.096;2023-03-12T14:11:19;6.60;;;5.30;;
8663;SDS011;4369;47.842;13.096;2023-03-12T14:13:59;7.03;;;4.87;;
8663;SDS011;4369;47.842;13.096;2023-03-12T14:16:45;7.17;;;5.27;;
8663;SDS011;4369;47.842;13.096;2023-03-12T14:19:15;7.73;;;5.33;;
8663;SDS011;4369;47.842;13.096;2023-03-12T14:21:46;5.97;;;5.10;;
8663;SDS011;4369;47.842;13.096;2023-03-12T14:24:18;5.23;;;4.73;;
8663;SDS011;4369;47.842;13.096;2023-03-12T14:26:50;6.83;;;5.37;;
8663;SDS011;4369;47.842;13.096;2023-03-12T14:29:19;5.70;;;4.97;;
8663;SDS011;4369;47.842;13.096;2023-03-12T14:31:52;5.77;;;5.27;;
8663;SDS011;4369;47.842;13.096;2023-03-12T14:34:22;7.33;;;5.60;;
8663;SDS011;4369;47.842;13.096;2023-03-12T14:36:54;7.20;;;5.57;;
8663;SDS011;4369;47.842;13.096;2023-03-12T14:39:26;8.60;;;5.40;;
8663;SDS011;4369;47.842;13.096;2023-03-12T14:41:57;6.20;;;5.60;;
8663;SDS011;4369;47.842;13.096;2023-03-12T14:44:29;6.73;;;5.87;;
8663;SDS011;4369;47.842;13.096;2023-03-12T14:46:59;9.77;;;6.07;;
8663;SDS011;4369;47.842;13.096;2023-03-12T14:49:28;11.87;;;6.27;;
8663;SDS011;4369;47.842;13.096;2023-03-12T14:51:56;9.57;;;6.07;;
8663;SDS011;4369;47.842;13.096;2023-03-12T14:54:24;8.50;;;5.93;;
8663;SDS011;4369;47.842;13.096;2023-03-12T14:56:52;6.40;;;5.70;;
8663;SDS011;4369;47.842;13.096;2023-03-12T14:59:20;9.23;;;5.90;;
8663;SDS011;4369;47.842;13.096;2023-03-12T15:01:50;9.57;;;5.83;;
8663;SDS011;4369;47.842;13.096;2023-03-12T15:04:19;8.67;;;6.00;;
8663;SDS011;4369;47.842;13.096;2023-03-12T15:06:49;8.07;;;6.23;;
8663;SDS011;4369;47.842;13.096;2023-03-12T15:09:18;7.30;;;5.80;;
8663;SDS011;4369;47.842;13.096;2023-03-12T15:11:50;7.23;;;5.90;;
8663;SDS011;4369;47.842;13.096;2023-03-12T15:14:19;11.00;;;6.50;;
8663;SDS011;4369;47.842;13.096;2023-03-12T15:16:48;9.57;;;6.40;;
8663;SDS011;4369;47.842;13.096;2023-03-12T15:19:16;12.67;;;7.00;;
8663;SDS011;4369;47.842;13.096;2023-03-12T15:21:48;9.10;;;7.00;;
8663;SDS011;4369;47.842;13.096;2023-03-12T15:24:16;7.90;;;6.97;;